sensor_id;sensor_type;location;lat;lon;timestamp;temperature;humidity
10443;DHT22;5269;51.146;16.986;2023-08-06T00:02:48;15.40;99.90
10443;DHT22;5269;51.146;16.986;2023-08-06T00:05:29;15.40;99.90
10443;DHT22;5269;51.146;16.986;2023-08-06T00:08:17;15.40;99.90
10443;DHT22;5269;51.146;16.986;2023-08-06T00:10:49;15.40;99.90
10443;DHT22;5269;51.146;16.986;2023-08-06T00:13:39;15.40;99.90
10443;DHT22;5269;51.146;16.986;2023-08-06T00:16:25;15.30;99.90
10443;DHT22;5269;51.146;16.986;2023-08-06T00:18:57;15.40;99.90
10443;DHT22;5269;51.146;16.986;2023-08-06T00:21:25;15.40;99.90
10443;DHT22;5269;51.146;16.986;2023-08-06T00:23:58;15.40;99.90
10443;DHT22;5269;51.146;16.986;2023-08-06T00:26:38;15.40;99.90
10443;DHT22;5269;51.146;16.986;2023-08-06T00:29:15;15.40;99.90
10443;DHT22;5269;51.146;16.986;2023-08-06T00:31:47;15.50;99.90
10443;DHT22;5269;51.146;16.986;2023-08-06T00:34:59;15.40;99.90
10443;DHT22;5269;51.146;16.986;2023-08-06T00:40:15;15.30;99.90
10443;DHT22;5269;51.146;16.986;2023-08-06T00:42:49;15.20;99.90
10443;DHT22;5269;51.146;16.986;2023-08-06T00:45:25;15.30;99.90
10443;DHT22;5269;51.146;16.986;2023-08-06T00:48:11;15.30;99.90
10443;DHT22;5269;51.146;16.986;2023-08-06T00:50:47;15.40;99.90
10443;DHT22;5269;51.146;16.986;2023-08-06T00:56:17;15.40;99.90
10443;DHT22;5269;51.146;16.986;2023-08-06T00:58:47;15.30;99.90
10443;DHT22;5269;51.146;16.986;2023-08-06T01:01:35;15.30;99.90
10443;DHT22;5269;51.146;16.986;2023-08-06T01:04:38;15.30;99.90
10443;DHT22;5269;51.146;16.986;2023-08-06T01:07:19;15.30;99.90
10443;DHT22;5269;51.146;16.986;2023-08-06T01:10:19;15.30;99.90
10443;DHT22;5269;51.146;16.986;2023-08-06T01:13:18;15.30;99.90
10443;DHT22;5269;51.146;16.986;2023-08-06T01:16:06;15.30;99.90
10443;DHT22;5269;51.146;16.986;2023-08-06T01:18:48;15.30;99.90
10443;DHT22;5269;51.146;16.986;2023-08-06T01:21:29;15.20;99.90
10443;DHT22;5269;51.146;16.986;2023-08-06T01:24:06;15.20;99.90
10443;DHT22;5269;51.146;16.986;2023-08-06T01:29:31;15.20;99.90
10443;DHT22;5269;51.146;16.986;2023-08-06T01:32:08;15.20;99.90
10443;DHT22;5269;51.146;16.986;2023-08-06T01:35:08;15.20;99.90
10443;DHT22;5269;51.146;16.986;2023-08-06T01:37:55;15.20;99.90
10443;DHT22;5269;51.146;16.986;2023-08-06T01:40:28;15.30;99.90
10443;DHT22;5269;51.146;16.986;2023-08-06T01:43:29;15.30;99.90
10443;DHT22;5269;51.146;16.986;2023-08-06T01:46:07;15.30;99.90
10443;DHT22;5269;51.146;16.986;2023-08-06T01:48:40;15.30;99.90
10443;DHT22;5269;51.146;16.986;2023-08-06T01:51:16;15.30;99.90
10443;DHT22;5269;51.146;16.986;2023-08-06T01:53:47;15.30;99.90
10443;DHT22;5269;51.146;16.986;2023-08-06T01:56:17;15.20;99.90
10443;DHT22;5269;51.146;16.986;2023-08-06T01:58:47;15.20;99.90
10443;DHT22;5269;51.146;16.986;2023-08-06T02:01:36;15.20;99.90
10443;DHT22;5269;51.146;16.986;2023-08-06T02:04:17;15.20;99.90
10443;DHT22;5269;51.146;16.986;2023-08-06T02:06:46;15.20;99.90
10443;DHT22;5269;51.146;16.986;2023-08-06T02:09:27;15.20;99.90
10443;DHT22;5269;51.146;16.986;2023-08-06T02:12:06;15.30;99.90
10443;DHT22;5269;51.146;16.986;2023-08-06T02:14:48;15.30;99.90
10443;DHT22;5269;51.146;16.986;2023-08-06T02:17:26;15.20;99.90
10443;DHT22;5269;51.146;16.986;2023-08-06T02:20:16;15.10;99.90
10443;DHT22;5269;51.146;16.986;2023-08-06T02:22:49;15.10;99.90
10443;DHT22;5269;51.146;16.986;2023-08-06T02:25:39;15.20;99.90
10443;DHT22;5269;51.146;16.986;2023-08-06T02:28:27;15.10;99.90
10443;DHT22;5269;51.146;16.986;2023-08-06T02:31:07;15.10;99.90
10443;DHT22;5269;51.146;16.986;2023-08-06T02:33:36;15.00;99.90
10443;DHT22;5269;51.146;16.986;2023-08-06T02:36:08;15.00;99.90
10443;DHT22;5269;51.146;16.986;2023-08-06T02:38:49;15.00;99.90
10443;DHT22;5269;51.146;16.986;2023-08-06T02:41:29;14.80;99.90
10443;DHT22;5269;51.146;16.986;2023-08-06T02:44:08;14.90;99.90
10443;DHT22;5269;51.146;16.986;2023-08-06T02:46:39;14.80;99.90
10443;DHT22;5269;51.146;16.986;2023-08-06T02:49:17;14.90;99.90
10443;DHT22;5269;51.146;16.986;2023-08-06T02:52:07;14.80;99.90
10443;DHT22;5269;51.146;16.986;2023-08-06T02:54:39;14.90;99.90
10443;DHT22;5269;51.146;16.986;2023-08-06T02:57:19;15.00;99.90
10443;DHT22;5269;51.146;16.986;2023-08-06T02:59:56;14.90;99.90
10443;DHT22;5269;51.146;16.986;2023-08-06T03:02:36;14.90;99.90
10443;DHT22;5269;51.146;16.986;2023-08-06T03:05:18;14.90;99.90
10443;DHT22;5269;51.146;16.986;2023-08-06T03:07:49;15.00;99.90
10443;DHT22;5269;51.146;16.986;2023-08-06T03:10:26;14.90;99.90
10443;DHT22;5269;51.146;16.986;2023-08-06T03:12:58;15.00;99.90
10443;DHT22;5269;51.146;16.986;2023-08-06T03:15:36;15.00;99.90
10443;DHT22;5269;51.146;16.986;2023-08-06T03:18:08;14.90;99.90
10443;DHT22;5269;51.146;16.986;2023-08-06T03:20:49;14.80;99.90
10443;DHT22;5269;51.146;16.986;2023-08-06T03:23:17;14.90;99.90
10443;DHT22;5269;51.146;16.986;2023-08-06T03:26:08;14.80;99.90
10443;DHT22;5269;51.146;16.986;2023-08-06T03:28:39;14.80;99.90
10443;DHT22;5269;51.146;16.986;2023-08-06T03:31:18;14.70;99.90
10443;DHT22;5269;51.146;16.986;2023-08-06T03:33:50;14.80;99.90
10443;DHT22;5269;51.146;16.986;2023-08-06T03:39:28;14.80;99.90
10443;DHT22;5269;51.146;16.986;2023-08-06T03:42:19;14.80;99.90
10443;DHT22;5269;51.146;16.986;2023-08-06T03:45:18;14.80;99.90
10443;DHT22;5269;51.146;16.986;2023-08-06T03:47:58;14.90;99.90
10443;DHT22;5269;51.146;16.986;2023-08-06T03:50:35;14.70;99.90
10443;DHT22;5269;51.146;16.986;2023-08-06T03:53:09;14.70;99.90
10443;DHT22;5269;51.146;16.986;2023-08-06T03:55:58;14.60;99.90
10443;DHT22;5269;51.146;16.986;2023-08-06T03:58:29;14.60;99.90
10443;DHT22;5269;51.146;16.986;2023-08-06T04:01:18;14.60;99.90
10443;DHT22;5269;51.146;16.986;2023-08-06T04:03:58;14.70;99.90
10443;DHT22;5269;51.146;16.986;2023-08-06T04:06:27;14.60;99.90
10443;DHT22;5269;51.146;16.986;2023-08-06T04:08:57;14.60;99.90
10443;DHT22;5269;51.146;16.986;2023-08-06T04:11:27;14.60;99.90
10443;DHT22;5269;51.146;16.986;2023-08-06T04:13:57;14.60;99.90
10443;DHT22;5269;51.146;16.986;2023-08-06T04:16:26;14.50;99.90
10443;DHT22;5269;51.146;16.986;2023-08-06T04:19:06;14.60;99.90
10443;DHT22;5269;51.146;16.986;2023-08-06T04:21:37;14.70;99.90
10443;DHT22;5269;51.146;16.986;2023-08-06T04:27:27;14.70;99.90
10443;DHT22;5269;51.146;16.986;2023-08-06T04:29:59;14.70;99.90
10443;DHT22;5269;51.146;16.986;2023-08-06T04:39:08;14.80;99.90
10443;DHT22;5269;51.146;16.986;2023-08-06T04:41:37;14.80;99.90
10443;DHT22;5269;51.146;16.986;2023-08-06T04:44:20;14.70;99.90
10443;DHT22;5269;51.146;16.986;2023-08-06T04:46:52;14.80;99.90
10443;DHT22;5269;51.146;16.986;2023-08-06T04:49:26;14.70;99.90
10443;DHT22;5269;51.146;16.986;2023-08-06T04:51:57;14.80;99.90
10443;DHT22;5269;51.146;16.986;2023-08-06T04:54:30;14.70;99.90
10443;DHT22;5269;51.146;16.986;2023-08-06T04:57:18;14.70;99.90
10443;DHT22;5269;51.146;16.986;2023-08-06T04:59:47;14.70;99.90
10443;DHT22;5269;51.146;16.986;2023-08-06T05:02:27;14.70;99.90
10443;DHT22;5269;51.146;16.986;2023-08-06T05:04:58;14.70;99.90
10443;DHT22;5269;51.146;16.986;2023-08-06T05:07:27;14.60;99.90
10443;DHT22;5269;51.146;16.986;2023-08-06T05:09:57;14.70;99.90
10443;DHT22;5269;51.146;16.986;2023-08-06T05:12:26;14.70;99.90
10443;DHT22;5269;51.146;16.986;2023-08-06T05:15:08;14.70;99.90
10443;DHT22;5269;51.146;16.986;2023-08-06T05:17:38;14.70;99.90
10443;DHT22;5269;51.146;16.986;2023-08-06T05:20:08;14.70;99.90
10443;DHT22;5269;51.146;16.986;2023-08-06T05:22:37;14.60;99.90
10443;DHT22;5269;51.146;16.986;2023-08-06T05:25:06;14.60;99.90
10443;DHT22;5269;51.146;16.986;2023-08-06T05:27:36;14.60;99.90
10443;DHT22;5269;51.146;16.986;2023-08-06T05:30:06;14.60;99.90
10443;DHT22;5269;51.146;16.986;2023-08-06T05:32:33;14.60;99.90
10443;DHT22;5269;51.146;16.986;2023-08-06T05:35:04;14.50;99.90
10443;DHT22;5269;51.146;16.986;2023-08-06T05:37:33;14.50;99.90
10443;DHT22;5269;51.146;16.986;2023-08-06T05:40:17;14.60;99.90
10443;DHT22;5269;51.146;16.986;2023-08-06T05:42:46;14.60;99.90
10443;DHT22;5269;51.146;16.986;2023-08-06T05:45:16;14.60;99.90
10443;DHT22;5269;51.146;16.986;2023-08-06T05:47:48;14.60;99.90
10443;DHT22;5269;51.146;16.986;2023-08-06T05:50:16;14.60;99.90
10443;DHT22;5269;51.146;16.986;2023-08-06T05:52:45;14.60;99.90
10443;DHT22;5269;51.146;16.986;2023-08-06T05:55:15;14.60;99.90
10443;DHT22;5269;51.146;16.986;2023-08-06T05:57:47;14.70;99.90
10443;DHT22;5269;51.146;16.986;2023-08-06T06:00:14;14.60;99.90
10443;DHT22;5269;51.146;16.986;2023-08-06T06:02:52;14.60;99.90
10443;DHT22;5269;51.146;16.986;2023-08-06T06:05:37;14.50;99.90
10443;DHT22;5269;51.146;16.986;2023-08-06T06:08:10;14.50;99.90
10443;DHT22;5269;51.146;16.986;2023-08-06T06:10:52;14.50;99.90
10443;DHT22;5269;51.146;16.986;2023-08-06T06:13:29;14.60;99.90
10443;DHT22;5269;51.146;16.986;2023-08-06T06:15:56;14.60;99.90
10443;DHT22;5269;51.146;16.986;2023-08-06T06:18:27;14.60;99.90
10443;DHT22;5269;51.146;16.986;2023-08-06T06:34:28;14.60;99.90
10443;DHT22;5269;51.146;16.986;2023-08-06T06:36:56;14.60;99.90
10443;DHT22;5269;51.146;16.986;2023-08-06T06:39:26;14.50;99.90
10443;DHT22;5269;51.146;16.986;2023-08-06T06:49:49;14.60;99.90
10443;DHT22;5269;51.146;16.986;2023-08-06T06:52:29;14.60;99.90
10443;DHT22;5269;51.146;16.986;2023-08-06T06:54:59;14.60;99.90
10443;DHT22;5269;51.146;16.986;2023-08-06T07:00:47;14.50;99.90
10443;DHT22;5269;51.146;16.986;2023-08-06T07:03:16;14.70;99.90
10443;DHT22;5269;51.146;16.986;2023-08-06T07:21:39;14.70;99.90
10443;DHT22;5269;51.146;16.986;2023-08-06T07:24:36;14.70;99.90
10443;DHT22;5269;51.146;16.986;2023-08-06T07:38:10;14.80;99.90
10443;DHT22;5269;51.146;16.986;2023-08-06T07:43:50;14.80;99.90
10443;DHT22;5269;51.146;16.986;2023-08-06T07:46:36;14.80;99.90
10443;DHT22;5269;51.146;16.986;2023-08-06T07:49:17;14.90;99.90
10443;DHT22;5269;51.146;16.986;2023-08-06T07:51:58;14.90;99.90
10443;DHT22;5269;51.146;16.986;2023-08-06T07:54:57;14.80;99.90
10443;DHT22;5269;51.146;16.986;2023-08-06T08:02:59;14.90;99.90
10443;DHT22;5269;51.146;16.986;2023-08-06T08:05:47;14.80;99.90
10443;DHT22;5269;51.146;16.986;2023-08-06T08:08:29;14.90;99.90
10443;DHT22;5269;51.146;16.986;2023-08-06T08:17:29;14.80;99.90
10443;DHT22;5269;51.146;16.986;2023-08-06T08:22:38;14.70;99.90
10443;DHT22;5269;51.146;16.986;2023-08-06T08:25:08;14.80;99.90
10443;DHT22;5269;51.146;16.986;2023-08-06T08:27:57;14.80;99.90
10443;DHT22;5269;51.146;16.986;2023-08-06T08:30:58;14.80;99.90
10443;DHT22;5269;51.146;16.986;2023-08-06T08:39:07;14.80;99.90
10443;DHT22;5269;51.146;16.986;2023-08-06T08:42:07;14.80;99.90
10443;DHT22;5269;51.146;16.986;2023-08-06T08:45:29;14.80;99.90
10443;DHT22;5269;51.146;16.986;2023-08-06T08:48:28;14.90;99.90
10443;DHT22;5269;51.146;16.986;2023-08-06T08:50:58;14.80;99.90
10443;DHT22;5269;51.146;16.986;2023-08-06T08:53:50;14.90;99.90
10443;DHT22;5269;51.146;16.986;2023-08-06T09:32:57;14.90;99.90
10443;DHT22;5269;51.146;16.986;2023-08-06T09:36:10;15.00;99.90
10443;DHT22;5269;51.146;16.986;2023-08-06T09:39:00;15.10;99.90
10443;DHT22;5269;51.146;16.986;2023-08-06T09:44:08;15.00;99.90
10443;DHT22;5269;51.146;16.986;2023-08-06T09:45:49;15.00;99.90
10443;DHT22;5269;51.146;16.986;2023-08-06T09:48:38;15.00;99.90
10443;DHT22;5269;51.146;16.986;2023-08-06T09:51:20;15.00;99.90
10443;DHT22;5269;51.146;16.986;2023-08-06T09:57:27;15.00;99.90
10443;DHT22;5269;51.146;16.986;2023-08-06T10:00:47;15.00;99.90
10443;DHT22;5269;51.146;16.986;2023-08-06T10:03:49;15.00;99.90
10443;DHT22;5269;51.146;16.986;2023-08-06T10:20:19;15.00;99.90
10443;DHT22;5269;51.146;16.986;2023-08-06T10:23:17;14.90;99.90
10443;DHT22;5269;51.146;16.986;2023-08-06T10:45:50;15.10;99.90
10443;DHT22;5269;51.146;16.986;2023-08-06T10:48:56;15.00;99.90
10443;DHT22;5269;51.146;16.986;2023-08-06T11:12:18;15.20;99.90
10443;DHT22;5269;51.146;16.986;2023-08-06T11:16:27;15.20;99.90
10443;DHT22;5269;51.146;16.986;2023-08-06T11:28:58;15.30;99.90
10443;DHT22;5269;51.146;16.986;2023-08-06T11:31:50;15.30;99.90
10443;DHT22;5269;51.146;16.986;2023-08-06T11:38:21;15.30;99.90
10443;DHT22;5269;51.146;16.986;2023-08-06T11:41:31;15.30;99.90
10443;DHT22;5269;51.146;16.986;2023-08-06T11:50:45;15.40;99.90
10443;DHT22;5269;51.146;16.986;2023-08-06T11:53:39;15.40;99.90
10443;DHT22;5269;51.146;16.986;2023-08-06T11:56:57;15.30;99.90
10443;DHT22;5269;51.146;16.986;2023-08-06T12:03:29;15.20;99.90
10443;DHT22;5269;51.146;16.986;2023-08-06T12:19:59;15.50;99.90
10443;DHT22;5269;51.146;16.986;2023-08-06T12:25:09;15.50;99.90
10443;DHT22;5269;51.146;16.986;2023-08-06T12:29:31;15.40;99.90
10443;DHT22;5269;51.146;16.986;2023-08-06T12:39:20;15.40;99.90
10443;DHT22;5269;51.146;16.986;2023-08-06T12:42:13;15.50;99.90
10443;DHT22;5269;51.146;16.986;2023-08-06T12:45:09;15.50;99.90
10443;DHT22;5269;51.146;16.986;2023-08-06T12:48:10;15.40;99.90
10443;DHT22;5269;51.146;16.986;2023-08-06T12:51:07;15.40;99.90
10443;DHT22;5269;51.146;16.986;2023-08-06T12:53:38;15.60;99.90
10443;DHT22;5269;51.146;16.986;2023-08-06T12:56:41;15.50;99.90
10443;DHT22;5269;51.146;16.986;2023-08-06T12:59:48;15.50;99.90
10443;DHT22;5269;51.146;16.986;2023-08-06T13:02:40;15.50;99.90
10443;DHT22;5269;51.146;16.986;2023-08-06T13:06:18;15.70;99.90
10443;DHT22;5269;51.146;16.986;2023-08-06T13:09:38;15.60;99.90
10443;DHT22;5269;51.146;16.986;2023-08-06T13:18:51;15.70;99.90
10443;DHT22;5269;51.146;16.986;2023-08-06T13:24:53;15.60;99.90
10443;DHT22;5269;51.146;16.986;2023-08-06T13:43:07;15.50;99.90
10443;DHT22;5269;51.146;16.986;2023-08-06T13:46:07;15.60;99.90
10443;DHT22;5269;51.146;16.986;2023-08-06T13:52:29;15.60;99.90
10443;DHT22;5269;51.146;16.986;2023-08-06T13:55:09;15.40;99.90
10443;DHT22;5269;51.146;16.986;2023-08-06T13:57:59;15.50;99.90
10443;DHT22;5269;51.146;16.986;2023-08-06T14:01:18;15.50;99.90
10443;DHT22;5269;51.146;16.986;2023-08-06T14:07:40;15.50;99.90
10443;DHT22;5269;51.146;16.986;2023-08-06T14:17:31;15.40;99.90
10443;DHT22;5269;51.146;16.986;2023-08-06T14:23:58;15.40;99.90
10443;DHT22;5269;51.146;16.986;2023-08-06T14:26:49;15.40;99.90
10443;DHT22;5269;51.146;16.986;2023-08-06T14:29:50;15.50;99.90
10443;DHT22;5269;51.146;16.986;2023-08-06T15:04:41;16.00;99.90
10443;DHT22;5269;51.146;16.986;2023-08-06T15:10:50;15.80;99.90
10443;DHT22;5269;51.146;16.986;2023-08-06T15:13:47;15.90;99.90
10443;DHT22;5269;51.146;16.986;2023-08-06T15:16:40;15.80;99.90
10443;DHT22;5269;51.146;16.986;2023-08-06T15:20:11;15.70;99.90
10443;DHT22;5269;51.146;16.986;2023-08-06T15:26:31;15.70;99.90
10443;DHT22;5269;51.146;16.986;2023-08-06T15:31:58;15.70;99.90
10443;DHT22;5269;51.146;16.986;2023-08-06T15:34:38;15.60;99.90
10443;DHT22;5269;51.146;16.986;2023-08-06T15:38:02;15.60;99.90
10443;DHT22;5269;51.146;16.986;2023-08-06T15:44:12;15.50;99.90
10443;DHT22;5269;51.146;16.986;2023-08-06T15:53:21;15.60;99.90
10443;DHT22;5269;51.146;16.986;2023-08-06T15:56:10;15.50;99.90
10443;DHT22;5269;51.146;16.986;2023-08-06T16:11:51;15.40;99.90
10443;DHT22;5269;51.146;16.986;2023-08-06T16:14:50;15.30;99.90
10443;DHT22;5269;51.146;16.986;2023-08-06T16:17:59;15.40;99.90
10443;DHT22;5269;51.146;16.986;2023-08-06T16:20:58;15.40;99.90
10443;DHT22;5269;51.146;16.986;2023-08-06T16:23:58;15.20;99.90
10443;DHT22;5269;51.146;16.986;2023-08-06T16:27:12;15.30;99.90
10443;DHT22;5269;51.146;16.986;2023-08-06T16:30:19;15.30;99.90
10443;DHT22;5269;51.146;16.986;2023-08-06T16:33:22;15.30;99.90
10443;DHT22;5269;51.146;16.986;2023-08-06T16:39:21;15.30;99.90
10443;DHT22;5269;51.146;16.986;2023-08-06T17:07:22;15.10;99.90
10443;DHT22;5269;51.146;16.986;2023-08-06T17:10:29;15.20;99.90
10443;DHT22;5269;51.146;16.986;2023-08-06T17:14:01;15.20;99.90
10443;DHT22;5269;51.146;16.986;2023-08-06T17:17:00;15.20;99.90
10443;DHT22;5269;51.146;16.986;2023-08-06T17:20:08;15.10;99.90
10443;DHT22;5269;51.146;16.986;2023-08-06T17:42:31;15.10;99.90
10443;DHT22;5269;51.146;16.986;2023-08-06T17:45:42;15.00;99.90
10443;DHT22;5269;51.146;16.986;2023-08-06T17:49:02;15.00;99.90
10443;DHT22;5269;51.146;16.986;2023-08-06T17:52:11;15.00;99.90
10443;DHT22;5269;51.146;16.986;2023-08-06T17:55:11;14.90;99.90
10443;DHT22;5269;51.146;16.986;2023-08-06T18:18:40;14.80;99.90
10443;DHT22;5269;51.146;16.986;2023-08-06T18:28:52;14.80;99.90
10443;DHT22;5269;51.146;16.986;2023-08-06T18:54:39;14.90;99.90
10443;DHT22;5269;51.146;16.986;2023-08-06T18:57:20;14.90;99.90
10443;DHT22;5269;51.146;16.986;2023-08-06T19:00:21;14.80;99.90
10443;DHT22;5269;51.146;16.986;2023-08-06T19:03:23;14.80;99.90
10443;DHT22;5269;51.146;16.986;2023-08-06T19:10:19;14.90;99.90
10443;DHT22;5269;51.146;16.986;2023-08-06T19:20:21;14.90;99.90
10443;DHT22;5269;51.146;16.986;2023-08-06T19:23:59;14.90;99.90
10443;DHT22;5269;51.146;16.986;2023-08-06T19:53:49;14.80;99.90
10443;DHT22;5269;51.146;16.986;2023-08-06T20:35:09;14.80;99.90
10443;DHT22;5269;51.146;16.986;2023-08-06T20:37:52;14.80;99.90
10443;DHT22;5269;51.146;16.986;2023-08-06T20:40:34;14.90;99.90
10443;DHT22;5269;51.146;16.986;2023-08-06T20:43:19;14.90;99.90
10443;DHT22;5269;51.146;16.986;2023-08-06T20:46:12;14.90;99.90
10443;DHT22;5269;51.146;16.986;2023-08-06T20:58:41;14.90;99.90
10443;DHT22;5269;51.146;16.986;2023-08-06T21:01:33;14.80;99.90
10443;DHT22;5269;51.146;16.986;2023-08-06T21:08:01;14.80;99.90
10443;DHT22;5269;51.146;16.986;2023-08-06T21:10:49;14.80;99.90
10443;DHT22;5269;51.146;16.986;2023-08-06T21:22:43;14.70;99.90
10443;DHT22;5269;51.146;16.986;2023-08-06T21:26:04;14.70;99.90
10443;DHT22;5269;51.146;16.986;2023-08-06T21:32:22;14.70;99.90
10443;DHT22;5269;51.146;16.986;2023-08-06T21:35:21;14.60;99.90
10443;DHT22;5269;51.146;16.986;2023-08-06T21:55:11;14.50;99.90
10443;DHT22;5269;51.146;16.986;2023-08-06T21:58:33;14.50;99.90
10443;DHT22;5269;51.146;16.986;2023-08-06T22:22:03;14.40;99.90
10443;DHT22;5269;51.146;16.986;2023-08-06T22:25:02;14.30;99.90
10443;DHT22;5269;51.146;16.986;2023-08-06T22:28:12;14.30;99.90
10443;DHT22;5269;51.146;16.986;2023-08-06T22:33:52;14.30;99.90
10443;DHT22;5269;51.146;16.986;2023-08-06T22:37:01;14.20;99.90
10443;DHT22;5269;51.146;16.986;2023-08-06T22:39:53;14.10;99.90
10443;DHT22;5269;51.146;16.986;2023-08-06T22:42:53;14.30;99.90
10443;DHT22;5269;51.146;16.986;2023-08-06T22:46:02;14.30;99.90
10443;DHT22;5269;51.146;16.986;2023-08-06T22:52:42;14.20;99.90
10443;DHT22;5269;51.146;16.986;2023-08-06T22:55:31;14.20;99.90
10443;DHT22;5269;51.146;16.986;2023-08-06T22:58:49;14.20;99.90
10443;DHT22;5269;51.146;16.986;2023-08-06T23:01:39;14.20;99.90
10443;DHT22;5269;51.146;16.986;2023-08-06T23:04:20;14.10;99.90
10443;DHT22;5269;51.146;16.986;2023-08-06T23:07:13;14.20;99.90
10443;DHT22;5269;51.146;16.986;2023-08-06T23:13:13;14.10;99.90
10443;DHT22;5269;51.146;16.986;2023-08-06T23:16:21;14.20;99.90
10443;DHT22;5269;51.146;16.986;2023-08-06T23:18:53;14.10;99.90
10443;DHT22;5269;51.146;16.986;2023-08-06T23:22:12;14.00;99.90
10443;DHT22;5269;51.146;16.986;2023-08-06T23:24:59;14.10;99.90
10443;DHT22;5269;51.146;16.986;2023-08-06T23:30:51;14.10;99.90
10443;DHT22;5269;51.146;16.986;2023-08-06T23:37:02;14.10;99.90
10443;DHT22;5269;51.146;16.986;2023-08-06T23:39:59;14.10;99.90
10443;DHT22;5269;51.146;16.986;2023-08-06T23:46:11;14.10;99.90
10443;DHT22;5269;51.146;16.986;2023-08-06T23:49:09;14.00;99.90
10443;DHT22;5269;51.146;16.986;2023-08-06T23:51:53;14.00;99.90
10443;DHT22;5269;51.146;16.986;2023-08-06T23:55:22;13.90;99.90
10443;DHT22;5269;51.146;16.986;2023-08-06T23:58:23;14.10;99.90
